Time;durP1;ratioP1;P1;durP2;ratioP2;P2;SDS_P1;SDS_P2;PMS_P1;PMS_P2;Temp;Humidity;BMP_temperature;BMP_pressure;BME280_temperature;BME280_humidity;BME280_pressure;Samples;Min_cycle;Max_cycle;Signal;HPM_P1;HPM_P2
2023/09/17 00:01:25;;;;;;;8.52;5.57;;;18.60;99.90;;;18.22;100.00;97450.88;5041829;28;20532;-74
2023/09/17 00:03:53;;;;;;;6.63;5.25;;;18.60;99.90;;;18.20;100.00;97448.41;5038818;28;20052;-73
2023/09/17 00:06:20;;;;;;;7.45;6.13;;;18.50;99.90;;;18.06;100.00;97452.03;5038684;28;20041;-73
2023/09/17 00:08:47;;;;;;;8.32;5.28;;;18.40;99.90;;;18.09;100.00;97446.56;5041103;28;20052;-73
2023/09/17 00:11:15;;;;;;;8.55;5.40;;;18.40;99.90;;;18.13;100.00;97452.41;5041486;28;20045;-74
2023/09/17 00:13:42;;;;;;;6.65;5.32;;;18.40;99.90;;;18.06;100.00;97444.16;5043019;28;20044;-73
2023/09/17 00:16:10;;;;;;;8.48;5.57;;;18.50;99.90;;;18.10;100.00;97442.97;5041793;28;20128;-74
2023/09/17 00:18:38;;;;;;;10.07;6.43;;;18.50;99.90;;;18.02;100.00;97442.72;5042314;28;20405;-73
2023/09/17 00:21:06;;;;;;;8.18;5.70;;;18.40;99.90;;;17.90;100.00;97443.63;5042553;28;20056;-73
2023/09/17 00:23:34;;;;;;;5.95;5.05;;;18.40;99.90;;;17.99;100.00;97450.81;5041158;28;20433;-73
2023/09/17 00:26:01;;;;;;;9.88;5.95;;;18.40;99.90;;;17.84;100.00;97449.34;5040165;28;20502;-73
2023/09/17 00:28:28;;;;;;;8.23;5.32;;;18.30;99.90;;;17.90;100.00;97449.75;5043541;28;20053;-74
2023/09/17 00:30:55;;;;;;;6.25;4.88;;;18.30;99.90;;;17.81;100.00;97449.53;5044448;28;20055;-74
2023/09/17 00:33:23;;;;;;;9.50;5.03;;;18.30;99.90;;;17.69;100.00;97443.41;5043149;28;20041;-74
2023/09/17 00:35:50;;;;;;;9.85;5.63;;;18.20;99.90;;;17.71;100.00;97446.75;5043409;28;20505;-74
2023/09/17 00:38:17;;;;;;;8.68;5.85;;;18.20;99.90;;;17.69;100.00;97446.03;5040917;28;20048;-74
2023/09/17 00:40:44;;;;;;;11.27;6.22;;;18.10;99.90;;;17.73;100.00;97442.22;5046038;28;20139;-74
2023/09/17 00:43:12;;;;;;;7.32;4.93;;;18.10;99.90;;;17.85;100.00;97433.47;5043544;28;20060;-74
2023/09/17 00:45:41;;;;;;;6.70;4.78;;;18.20;99.90;;;17.88;100.00;97430.63;5043250;28;20122;-74
2023/09/17 00:48:11;;;;;;;8.75;5.38;;;18.20;99.90;;;17.87;100.00;97436.81;5026663;28;20128;-74
2023/09/17 00:50:39;;;;;;;7.32;5.45;;;18.20;99.90;;;17.71;100.00;97439.72;5052826;28;20160;-74
2023/09/17 00:53:07;;;;;;;7.40;4.97;;;18.20;99.90;;;17.84;100.00;97439.69;5046093;28;20053;-74
2023/09/17 00:55:35;;;;;;;7.53;5.30;;;18.20;99.90;;;17.87;100.00;97433.38;5037580;28;20076;-74
2023/09/17 00:58:04;;;;;;;7.18;4.68;;;18.20;99.90;;;17.89;100.00;97434.09;5044768;28;20056;-74
2023/09/17 01:00:36;;;;;;;6.97;5.60;;;18.20;99.90;;;17.89;100.00;97437.56;5043091;28;20119;-73
2023/09/17 01:03:05;;;;;;;6.82;4.68;;;18.30;99.90;;;18.02;100.00;97434.00;5043928;28;20044;-73
2023/09/17 01:05:40;;;;;;;7.88;4.82;;;18.30;99.90;;;17.96;100.00;97435.31;5057458;28;20046;-73
2023/09/17 01:08:07;;;;;;;5.05;4.07;;;18.40;99.90;;;18.01;100.00;97435.78;5043068;28;20513;-75
2023/09/17 01:10:41;;;;;;;5.95;4.47;;;18.40;99.90;;;17.95;100.00;97436.28;5044065;28;20049;-74
2023/09/17 01:13:09;;;;;;;7.00;4.68;;;18.40;99.90;;;18.00;100.00;97436.75;5043578;28;20049;-74
2023/09/17 01:15:37;;;;;;;7.50;4.72;;;18.40;99.90;;;17.95;100.00;97439.72;5041794;28;20079;-74
2023/09/17 01:18:07;;;;;;;8.52;6.13;;;18.40;99.90;;;17.70;100.00;97438.06;5044562;28;20052;-74
2023/09/17 01:20:52;;;;;;;6.80;5.30;;;18.30;99.90;;;17.66;100.00;97441.03;5042424;28;20079;-74
2023/09/17 01:23:36;;;;;;;6.93;5.45;;;18.30;99.90;;;17.67;100.00;97440.06;5042546;28;20420;-74
2023/09/17 01:26:13;;;;;;;6.70;5.20;;;18.30;99.90;;;17.63;100.00;97441.22;5055911;28;20262;-72
2023/09/17 01:28:40;;;;;;;10.50;5.80;;;18.20;99.90;;;17.45;100.00;97446.06;5043476;28;20393;-74
2023/09/17 01:31:09;;;;;;;8.40;4.28;;;18.20;99.90;;;17.55;100.00;97434.75;5044326;28;20041;-72
2023/09/17 01:33:36;;;;;;;9.02;5.13;;;18.10;99.90;;;17.49;100.00;97437.84;5046884;28;20045;-74
2023/09/17 01:36:24;;;;;;;8.55;6.07;;;18.10;99.90;;;17.49;100.00;97437.84;5046259;28;20074;-74
2023/09/17 01:38:59;;;;;;;8.55;5.28;;;18.10;99.90;;;17.49;100.00;97429.97;5044685;28;20049;-73
2023/09/17 01:41:27;;;;;;;7.22;5.55;;;18.10;99.90;;;17.59;100.00;97432.75;5027257;28;20048;-72
2023/09/17 01:43:55;;;;;;;9.75;5.45;;;18.10;99.90;;;17.66;100.00;97441.84;5044872;28;20072;-71
2023/09/17 01:46:23;;;;;;;6.93;4.78;;;18.10;99.90;;;17.73;100.00;97440.44;5045641;28;20055;-72
2023/09/17 01:48:51;;;;;;;6.90;5.07;;;18.20;99.90;;;17.82;100.00;97443.38;5044664;28;20053;-75
2023/09/17 01:51:19;;;;;;;5.90;5.20;;;18.20;99.90;;;17.85;100.00;97437.91;5042223;28;20056;-72
2023/09/17 01:53:46;;;;;;;5.88;4.63;;;18.30;99.90;;;17.85;100.00;97437.91;5045821;28;20053;-71
2023/09/17 01:56:14;;;;;;;7.57;5.60;;;18.30;99.90;;;17.87;100.00;97434.19;5044278;28;20544;-72
2023/09/17 01:58:41;;;;;;;6.18;5.00;;;18.40;99.90;;;18.01;100.00;97435.78;5060040;28;20125;-72
2023/09/17 02:01:08;;;;;;;7.90;5.32;;;18.40;99.90;;;17.87;100.00;97438.63;5043704;28;20049;-72
2023/09/17 02:03:36;;;;;;;6.55;5.00;;;18.40;99.90;;;18.02;100.00;97428.75;5045042;28;20076;-72
2023/09/17 02:06:04;;;;;;;5.60;4.60;;;18.50;99.90;;;18.14;100.00;97428.66;5044110;28;20041;-72
2023/09/17 02:08:31;;;;;;;7.80;6.10;;;18.50;99.90;;;18.06;100.00;97424.94;5027422;28;20462;-72
2023/09/17 02:10:58;;;;;;;7.32;5.10;;;18.50;99.90;;;18.17;100.00;97438.94;5045487;28;20060;-72
2023/09/17 02:13:25;;;;;;;8.75;5.35;;;18.50;99.90;;;18.10;100.00;97434.25;5042093;28;20759;-72
2023/09/17 02:15:52;;;;;;;6.90;4.55;;;18.60;99.90;;;18.18;100.00;97430.13;5040547;28;20741;-75
2023/09/17 02:18:20;;;;;;;8.77;5.50;;;18.60;99.90;;;18.10;100.00;97432.47;5043557;28;20056;-74
2023/09/17 02:20:47;;;;;;;5.68;4.93;;;18.60;99.90;;;18.17;100.00;97438.09;5045007;28;20060;-74
2023/09/17 02:23:14;;;;;;;6.07;5.10;;;18.60;99.90;;;18.26;100.00;97426.88;5043045;28;20100;-74
2023/09/17 02:25:42;;;;;;;7.05;5.88;;;18.60;99.90;;;18.28;100.00;97422.34;5043700;28;20056;-74
2023/09/17 02:28:09;;;;;;;7.50;4.65;;;18.70;99.90;;;18.30;100.00;97427.50;5044901;28;20666;-75
2023/09/17 02:30:36;;;;;;;6.78;4.60;;;18.70;99.90;;;18.32;100.00;97421.19;5049008;28;20049;-74
2023/09/17 02:33:04;;;;;;;7.95;5.47;;;18.70;99.90;;;18.07;100.00;97416.13;5046150;28;20828;-75
2023/09/17 02:35:31;;;;;;;6.65;5.60;;;18.70;99.90;;;17.96;100.00;97425.63;5048682;28;20532;-74
2023/09/17 02:37:58;;;;;;;8.13;5.05;;;18.60;99.90;;;18.03;100.00;97431.25;5048275;28;20053;-74
2023/09/17 02:40:25;;;;;;;8.43;5.70;;;18.50;99.90;;;18.19;100.00;97423.88;5045050;28;20329;-73
2023/09/17 02:42:52;;;;;;;9.13;4.90;;;18.60;99.90;;;18.64;100.00;97415.22;5064648;28;20148;-74
2023/09/17 02:45:19;;;;;;;7.50;6.00;;;18.80;99.90;;;18.73;100.00;97403.16;5048035;28;20080;-74
2023/09/17 02:47:46;;;;;;;7.32;5.10;;;19.00;99.90;;;18.90;100.00;97396.59;5048531;28;20146;-74
2023/09/17 02:50:14;;;;;;;10.55;5.97;;;19.10;99.90;;;18.98;100.00;97391.56;5046919;28;20095;-74
2023/09/17 02:52:41;;;;;;;8.10;5.68;;;19.30;99.90;;;18.99;100.00;97388.78;5047927;28;20045;-74
2023/09/17 02:55:09;;;;;;;10.43;5.07;;;19.30;99.90;;;18.83;100.00;97398.88;5064780;28;20052;-74
2023/09/17 02:57:36;;;;;;;7.00;4.07;;;19.30;99.90;;;18.89;100.00;97398.38;5043922;28;20106;-74
2023/09/17 03:00:10;;;;;;;7.30;4.65;;;19.30;99.90;;;18.92;100.00;97400.75;5045977;28;20057;-74
2023/09/17 03:02:40;;;;;;;8.30;5.28;;;19.30;99.90;;;18.65;100.00;97405.53;5047683;28;20161;-74
2023/09/17 03:05:10;;;;;;;6.75;5.43;;;19.20;99.90;;;18.38;100.00;97420.72;5047809;28;20077;-74
2023/09/17 03:07:38;;;;;;;8.77;5.28;;;19.10;99.90;;;18.24;100.00;97425.34;5048870;28;20049;-74
2023/09/17 03:10:10;;;;;;;8.18;5.45;;;18.90;99.90;;;18.29;100.00;97420.56;5047839;28;20045;-74
2023/09/17 03:12:38;;;;;;;8.23;4.65;;;18.80;99.90;;;18.35;100.00;97409.59;5045522;28;20052;-74
2023/09/17 03:15:08;;;;;;;8.85;4.70;;;18.90;99.90;;;18.53;100.00;97408.16;5046914;28;20049;-74
2023/09/17 03:17:37;;;;;;;7.75;3.70;;;19.00;99.90;;;18.79;100.00;97398.28;5047875;28;20103;-74
2023/09/17 03:20:13;;;;;;;9.65;4.07;;;19.10;99.90;;;18.89;100.00;97392.31;5047870;28;20059;-73
2023/09/17 03:22:41;;;;;;;7.38;4.30;;;19.30;99.90;;;19.00;100.00;97387.03;5032190;28;20398;-74
2023/09/17 03:25:08;;;;;;;7.70;3.67;;;19.40;99.90;;;19.04;100.00;97390.22;5048975;28;20049;-74
2023/09/17 03:27:35;;;;;;;5.57;3.67;;;19.40;99.90;;;18.95;100.00;97389.16;5042632;28;20556;-72
2023/09/17 03:30:04;;;;;;;5.88;4.15;;;19.50;99.90;;;18.97;100.00;97384.63;5046665;28;20543;-74
2023/09/17 03:32:32;;;;;;;5.40;3.97;;;19.40;99.90;;;18.90;100.00;97386.91;5043961;28;20134;-75
2023/09/17 03:35:00;;;;;;;7.60;3.90;;;19.50;99.90;;;19.12;100.00;97390.47;5060040;28;20053;-73
2023/09/17 03:37:27;;;;;;;5.72;4.10;;;19.50;99.90;;;18.97;100.00;97388.06;5047555;28;20133;-74
2023/09/17 03:40:14;;;;;;;7.85;4.03;;;19.60;99.90;;;19.01;100.00;97401.84;5060373;28;20098;-73
2023/09/17 03:42:43;;;;;;;6.80;3.47;;;19.50;99.90;;;18.97;100.00;97403.84;5044571;28;20525;-74
2023/09/17 03:45:13;;;;;;;5.30;3.47;;;19.50;99.90;;;18.97;100.00;97405.66;5043522;28;20156;-74
2023/09/17 03:47:42;;;;;;;6.72;3.58;;;19.50;99.90;;;19.05;100.00;97407.69;5044297;28;20552;-74
2023/09/17 03:50:13;;;;;;;10.00;3.15;;;19.50;99.90;;;19.06;100.00;97399.66;5045665;28;20084;-74
2023/09/17 03:52:44;;;;;;;6.63;4.07;;;19.50;99.90;;;19.07;100.00;97397.88;5045410;28;20137;-75
2023/09/17 03:55:13;;;;;;;8.70;3.92;;;19.50;99.90;;;19.05;100.00;97408.53;5045798;28;20104;-75
2023/09/17 03:57:40;;;;;;;6.07;3.45;;;19.50;99.90;;;19.03;100.00;97397.28;5061724;28;20048;-74
2023/09/17 04:00:13;;;;;;;4.53;2.85;;;19.50;99.90;;;18.97;100.00;97413.56;5047055;28;20131;-74
2023/09/17 04:02:41;;;;;;;7.63;3.42;;;19.50;99.90;;;18.97;100.00;97416.19;5046550;28;20045;-74
2023/09/17 04:05:12;;;;;;;4.72;2.58;;;19.50;99.90;;;18.93;100.00;97412.97;5047497;28;20164;-74
2023/09/17 04:07:45;;;;;;;6.15;3.00;;;19.40;99.90;;;18.82;100.00;97412.97;5050500;28;20581;-74
2023/09/17 04:10:15;;;;;;;6.55;3.10;;;19.40;99.90;;;18.78;100.00;97414.19;5047506;28;20064;-74
2023/09/17 04:12:43;;;;;;;6.90;3.25;;;19.30;99.90;;;18.80;100.00;97414.91;5045604;28;20134;-74
2023/09/17 04:15:16;;;;;;;5.65;2.83;;;19.20;99.90;;;18.80;100.00;97415.72;5047157;28;20049;-74
2023/09/17 04:17:45;;;;;;;6.25;3.33;;;19.20;99.90;;;18.62;100.00;97411.88;5045510;28;20065;-74
2023/09/17 04:20:14;;;;;;;4.22;2.83;;;19.20;99.90;;;18.66;100.00;97412.50;5028784;28;20049;-74
2023/09/17 04:22:42;;;;;;;5.25;2.70;;;19.10;99.90;;;18.53;100.00;97417.84;5044244;28;20052;-74
2023/09/17 04:25:11;;;;;;;9.27;3.50;;;19.10;99.90;;;18.70;100.00;97416.53;5046024;28;20080;-74
2023/09/17 04:27:42;;;;;;;5.63;2.92;;;19.00;99.90;;;18.52;100.00;97414.41;5045154;28;20137;-74
2023/09/17 04:30:13;;;;;;;6.30;2.90;;;19.00;99.90;;;18.49;100.00;97426.91;5045242;28;20060;-73
2023/09/17 04:32:43;;;;;;;5.13;2.63;;;19.00;99.90;;;18.31;100.00;97418.66;5044440;28;20044;-74
2023/09/17 04:35:15;;;;;;;6.00;3.08;;;18.90;99.90;;;18.31;100.00;97421.28;5043506;28;20048;-74
2023/09/17 04:37:45;;;;;;;7.65;3.50;;;18.90;99.90;;;18.40;100.00;97428.47;5045395;28;20066;-74
2023/09/17 04:40:12;;;;;;;6.32;2.50;;;18.90;99.90;;;18.50;100.00;97423.34;5045753;28;20057;-74
2023/09/17 04:42:46;;;;;;;7.20;3.22;;;19.00;99.90;;;18.43;100.00;97425.63;5045245;28;20148;-74
2023/09/17 04:45:39;;;;;;;6.50;2.90;;;19.00;99.90;;;18.39;100.00;97426.81;5046325;28;20061;-74
2023/09/17 04:48:08;;;;;;;4.15;2.60;;;19.00;99.90;;;18.37;100.00;97431.34;5045580;28;20079;-74
2023/09/17 04:50:36;;;;;;;6.03;2.80;;;18.90;99.90;;;18.42;100.00;97425.72;5042500;28;20050;-74
2023/09/17 04:53:03;;;;;;;4.40;2.65;;;18.90;99.90;;;18.45;100.00;97430.72;5041942;28;20054;-74
2023/09/17 04:55:30;;;;;;;4.85;2.20;;;18.90;99.90;;;18.44;100.00;97427.28;5026686;28;20106;-74
2023/09/17 04:57:58;;;;;;;6.75;3.10;;;18.80;99.90;;;18.21;100.00;97434.28;5045140;28;20052;-74
2023/09/17 05:00:25;;;;;;;6.38;2.90;;;18.70;99.90;;;18.23;100.00;97437.66;5045927;28;20715;-74
2023/09/17 05:02:52;;;;;;;5.30;3.00;;;18.70;99.90;;;18.03;100.00;97431.25;5042965;28;20135;-74
2023/09/17 05:05:20;;;;;;;7.13;2.88;;;18.60;99.90;;;17.96;100.00;97444.00;5028312;28;20045;-74
2023/09/17 05:07:50;;;;;;;4.57;2.67;;;18.50;99.90;;;17.90;100.00;97447.13;5029104;28;20629;-74
2023/09/17 05:10:18;;;;;;;9.15;3.38;;;18.60;99.90;;;17.97;100.00;97443.06;5045512;28;20053;-74
2023/09/17 05:12:45;;;;;;;6.40;3.33;;;18.50;99.90;;;18.01;100.00;97445.47;5044425;28;20044;-74
2023/09/17 05:15:12;;;;;;;10.45;3.40;;;18.50;99.90;;;17.83;100.00;97453.75;5044813;28;20049;-73
2023/09/17 05:17:40;;;;;;;4.70;2.67;;;18.50;99.90;;;17.94;100.00;97450.34;5046099;28;20057;-74
2023/09/17 05:20:08;;;;;;;7.28;3.20;;;18.50;99.90;;;17.93;100.00;97449.50;5045177;28;20041;-74
2023/09/17 05:22:35;;;;;;;5.47;2.92;;;18.50;99.90;;;17.97;100.00;97455.34;5044657;28;20047;-74
2023/09/17 05:25:08;;;;;;;8.43;2.67;;;18.50;99.90;;;18.09;100.00;97462.31;5044860;28;20128;-73
2023/09/17 05:27:35;;;;;;;5.72;2.70;;;18.40;99.90;;;18.05;100.00;97460.03;5059488;28;20041;-74
2023/09/17 05:30:05;;;;;;;10.07;2.88;;;18.50;99.90;;;18.00;100.00;97472.69;5046288;28;20057;-73
2023/09/17 05:32:32;;;;;;;6.13;3.13;;;18.40;99.90;;;17.94;100.00;97480.06;5042458;28;20053;-73
2023/09/17 05:34:59;;;;;;;9.27;3.28;;;18.40;99.90;;;17.84;100.00;97478.25;5059753;28;20072;-74
2023/09/17 05:37:27;;;;;;;6.50;3.17;;;18.40;99.90;;;17.91;100.00;97475.03;5047349;28;20524;-74
2023/09/17 05:39:55;;;;;;;5.97;2.72;;;18.30;99.90;;;17.86;100.00;97484.19;5044055;28;20665;-74
2023/09/17 05:42:22;;;;;;;8.27;3.42;;;18.40;99.90;;;17.78;100.00;97482.94;5043228;28;20095;-74
2023/09/17 05:44:49;;;;;;;8.13;3.25;;;18.40;99.90;;;17.81;100.00;97479.28;5045304;28;20053;-74
2023/09/17 05:47:17;;;;;;;4.85;2.63;;;18.40;99.90;;;17.82;100.00;97483.59;5043676;28;20140;-74
2023/09/17 05:49:44;;;;;;;5.65;2.83;;;18.40;99.90;;;17.82;100.00;97488.84;5044808;28;20075;-74
2023/09/17 05:52:11;;;;;;;8.02;2.95;;;18.40;99.90;;;17.94;100.00;97484.47;5040708;28;20136;-74
2023/09/17 05:54:38;;;;;;;6.43;2.50;;;18.40;99.90;;;17.90;100.00;97488.28;5046577;28;20041;-74
2023/09/17 05:57:06;;;;;;;6.97;3.40;;;18.40;99.90;;;17.97;100.00;97487.72;5046513;28;20057;-72
2023/09/17 05:59:33;;;;;;;5.03;2.55;;;18.50;99.90;;;18.13;100.00;97486.56;5024477;28;20052;-73
2023/09/17 06:02:00;;;;;;;5.47;2.85;;;18.50;99.90;;;18.33;100.00;97479.81;5044979;28;20140;-73
2023/09/17 06:04:27;;;;;;;5.28;2.15;;;18.60;99.90;;;18.26;100.00;97476.81;5046026;28;20053;-74
2023/09/17 06:06:54;;;;;;;5.55;2.42;;;18.70;99.90;;;18.45;100.00;97472.78;5049982;28;20075;-73
2023/09/17 06:09:21;;;;;;;6.90;2.45;;;18.80;99.90;;;18.43;100.00;97472.94;5048655;28;20049;-73
2023/09/17 06:11:49;;;;;;;8.77;2.45;;;18.90;99.90;;;18.48;100.00;97468.16;5049235;28;20049;-74
2023/09/17 06:14:17;;;;;;;7.40;3.08;;;18.90;99.90;;;18.47;100.00;97471.72;5048026;28;20804;-74
2023/09/17 06:16:45;;;;;;;5.22;2.35;;;19.00;99.90;;;18.62;100.00;97471.50;5064295;28;20103;-74
2023/09/17 06:19:23;;;;;;;6.97;2.92;;;19.00;99.90;;;18.60;100.00;97475.06;5048879;28;20052;-74
2023/09/17 06:21:51;;;;;;;7.45;2.45;;;19.10;99.90;;;18.73;100.00;97476.78;5032954;28;20142;-74
2023/09/17 06:24:18;;;;;;;6.63;2.50;;;19.10;99.90;;;18.67;100.00;97477.25;5046167;28;20081;-74
2023/09/17 06:26:46;;;;;;;8.63;2.55;;;19.20;99.90;;;18.73;100.00;97479.41;5046223;28;20053;-74
2023/09/17 06:29:12;;;;;;;6.28;2.22;;;19.20;99.90;;;18.80;100.00;97480.63;5048196;28;20052;-74
2023/09/17 06:31:40;;;;;;;5.80;2.53;;;19.30;99.90;;;18.82;100.00;97481.34;5047196;28;20044;-74
2023/09/17 06:34:09;;;;;;;4.60;2.38;;;19.30;99.90;;;18.89;100.00;97481.72;5048465;28;20160;-74
2023/09/17 06:36:38;;;;;;;5.97;2.63;;;19.40;99.90;;;19.03;100.00;97481.47;5047732;28;20136;-74
2023/09/17 06:39:07;;;;;;;9.30;2.63;;;19.40;99.90;;;19.08;100.00;97476.66;5048164;28;20052;-74
2023/09/17 06:41:34;;;;;;;5.63;2.53;;;19.50;99.90;;;19.21;100.00;97477.38;5046029;28;20041;-73
2023/09/17 06:44:05;;;;;;;6.88;3.03;;;19.60;99.90;;;19.38;100.00;97480.47;5046561;28;20048;-74
2023/09/17 06:46:32;;;;;;;9.13;2.50;;;19.60;99.90;;;19.31;100.00;97481.91;5046854;28;20132;-74
2023/09/17 06:49:00;;;;;;;8.32;2.72;;;19.70;99.90;;;19.36;100.00;97480.59;5048302;28;20067;-74
2023/09/17 06:51:27;;;;;;;4.13;2.25;;;19.80;99.90;;;19.67;100.00;97474.66;5047026;28;20387;-74
2023/09/17 06:53:57;;;;;;;12.32;3.05;;;19.80;99.90;;;19.61;100.00;97483.88;5048127;28;20135;-74
2023/09/17 06:56:25;;;;;;;7.75;2.85;;;19.90;99.90;;;19.78;100.00;97486.00;5047012;28;20128;-73
2023/09/17 06:58:52;;;;;;;5.00;2.65;;;20.00;99.90;;;19.91;100.00;97479.72;5048402;28;20272;-74
2023/09/17 07:01:19;;;;;;;3.97;2.13;;;20.10;99.90;;;19.84;100.00;97477.63;5046462;28;20485;-74
2023/09/17 07:03:47;;;;;;;4.45;2.47;;;20.20;99.90;;;20.13;100.00;97478.81;5047454;28;20045;-74
2023/09/17 07:06:14;;;;;;;6.80;2.25;;;20.40;99.90;;;20.21;100.00;97485.13;5046591;28;20049;-74
2023/09/17 07:08:42;;;;;;;5.07;2.42;;;20.50;99.90;;;20.47;100.00;97484.72;5044878;28;20556;-74
2023/09/17 07:11:09;;;;;;;5.78;2.85;;;20.50;99.90;;;20.33;100.00;97480.59;5047605;28;20131;-74
2023/09/17 07:13:38;;;;;;;6.75;2.58;;;20.50;99.90;;;20.36;100.00;97480.34;5029050;28;20458;-73
2023/09/17 07:16:05;;;;;;;9.95;2.40;;;20.60;99.90;;;20.48;100.00;97473.19;5042224;28;20050;-74
2023/09/17 07:18:34;;;;;;;5.78;2.50;;;20.80;99.90;;;20.68;100.00;97468.91;5046097;28;20057;-73
2023/09/17 07:21:01;;;;;;;6.80;2.55;;;20.90;99.90;;;20.67;100.00;97475.16;5046331;28;20139;-73
2023/09/17 07:23:29;;;;;;;5.03;1.92;;;20.90;99.90;;;20.76;100.00;97482.28;5048490;28;20496;-73
2023/09/17 07:25:57;;;;;;;5.60;2.38;;;21.00;99.90;;;20.94;100.00;97476.38;5047559;28;20084;-73
2023/09/17 07:28:24;;;;;;;6.90;2.03;;;21.00;99.90;;;20.90;100.00;97478.44;5047920;28;20049;-73
2023/09/17 07:30:55;;;;;;;6.78;2.17;;;21.20;99.90;;;21.17;100.00;97492.88;5045354;28;20056;-73
2023/09/17 07:33:25;;;;;;;11.43;2.70;;;21.20;99.90;;;21.06;100.00;97491.16;5045606;28;20124;-73
2023/09/17 07:35:53;;;;;;;6.90;2.60;;;21.20;99.90;;;21.09;100.00;97485.59;5047660;28;21076;-73
2023/09/17 07:38:20;;;;;;;9.95;2.92;;;21.30;99.90;;;21.19;100.00;97488.25;5047317;28;20421;-73
2023/09/17 07:40:48;;;;;;;10.70;2.42;;;21.30;99.90;;;21.30;100.00;97489.03;5046594;28;20530;-72
2023/09/17 07:43:15;;;;;;;6.45;2.55;;;21.50;99.90;;;21.61;100.00;97490.78;5042826;28;20102;-73
2023/09/17 07:45:42;;;;;;;8.27;2.38;;;21.60;99.90;;;21.68;100.00;97489.25;5044750;28;20053;-74
2023/09/17 07:48:10;;;;;;;7.40;2.45;;;21.60;99.90;;;21.85;100.00;97488.59;5041235;28;20123;-73
2023/09/17 07:50:37;;;;;;;6.70;2.63;;;21.80;99.90;;;22.21;100.00;97490.66;5046628;28;20047;-74
2023/09/17 07:53:04;;;;;;;7.13;2.17;;;21.90;99.90;;;22.18;100.00;97494.41;5046142;28;20061;-74
2023/09/17 07:55:32;;;;;;;5.80;2.17;;;22.10;99.90;;;22.68;100.00;97501.34;5041435;28;20061;-74
2023/09/17 07:57:59;;;;;;;7.93;2.13;;;22.20;99.90;;;22.50;100.00;97495.94;5046669;28;20060;-73
2023/09/17 08:00:26;;;;;;;5.05;2.40;;;22.50;99.90;;;22.22;100.00;97498.50;5045280;28;20425;-73
2023/09/17 08:02:53;;;;;;;4.25;2.45;;;22.70;99.90;;;22.33;100.00;97498.34;5044621;28;20063;-74
2023/09/17 08:05:20;;;;;;;6.65;2.38;;;22.90;99.90;;;22.50;100.00;97490.66;5046712;28;20056;-73
2023/09/17 08:07:48;;;;;;;5.90;2.00;;;22.90;99.90;;;22.54;100.00;97503.47;5043741;28;20045;-73
2023/09/17 08:10:18;;;;;;;4.47;1.65;;;23.20;99.90;;;22.47;100.00;97497.06;5047953;28;20049;-73
2023/09/17 08:12:45;;;;;;;5.20;2.30;;;23.70;99.90;;;22.86;100.00;97504.09;5059094;28;20049;-74
2023/09/17 08:15:14;;;;;;;6.28;2.25;;;24.10;99.90;;;23.33;100.00;97506.69;5040554;28;20095;-73
2023/09/17 08:17:43;;;;;;;5.60;2.15;;;24.50;99.90;;;23.10;100.00;97507.06;5041068;28;20509;-74
2023/09/17 08:20:11;;;;;;;8.50;1.77;;;24.90;99.90;;;23.97;100.00;97504.91;5043519;28;20144;-74
2023/09/17 08:22:38;;;;;;;4.32;1.58;;;24.90;99.90;;;24.61;100.00;97505.66;5045324;28;20562;-73
2023/09/17 08:25:08;;;;;;;5.38;2.00;;;25.40;99.90;;;23.85;100.00;97503.47;5046565;28;20090;-73
2023/09/17 08:27:36;;;;;;;4.80;1.73;;;25.50;99.90;;;23.83;100.00;97500.97;5041769;28;20116;-72
2023/09/17 08:30:07;;;;;;;6.53;2.00;;;25.50;99.90;;;24.31;100.00;97501.56;5042569;28;20098;-73
2023/09/17 08:32:34;;;;;;;5.13;1.52;;;26.10;99.90;;;24.56;100.00;97502.63;5038599;28;20041;-72
2023/09/17 08:35:01;;;;;;;8.15;2.15;;;26.30;99.90;;;23.69;100.00;97514.72;5042946;28;20122;-73
2023/09/17 08:37:29;;;;;;;7.15;2.25;;;26.20;99.90;;;24.30;100.00;97511.34;5025662;28;20433;-74
2023/09/17 08:39:56;;;;;;;5.85;2.00;;;26.10;99.90;;;23.88;100.00;97511.13;5044216;28;20060;-73
2023/09/17 08:42:26;;;;;;;13.77;2.03;;;25.90;99.90;;;24.63;100.00;97506.31;5046449;28;20053;-74
2023/09/17 08:44:56;;;;;;;5.10;1.75;;;25.90;99.90;;;24.46;100.00;97507.16;5027970;28;20053;-74
2023/09/17 08:47:24;;;;;;;5.97;2.17;;;25.60;99.90;;;24.31;100.00;97504.22;5039338;28;20049;-74
2023/09/17 08:49:51;;;;;;;4.68;1.85;;;25.80;99.90;;;25.02;100.00;97503.22;5044647;28;20048;-74
2023/09/17 08:52:20;;;;;;;5.03;1.92;;;26.00;99.90;;;25.80;100.00;97507.53;5057739;28;20072;-73
2023/09/17 08:54:49;;;;;;;9.35;1.70;;;26.50;99.90;;;26.05;100.00;97501.28;5043300;28;20097;-74
2023/09/17 08:57:22;;;;;;;5.03;1.45;;;26.10;99.90;;;25.06;100.00;97509.88;5025031;28;20480;-74
2023/09/17 09:00:08;;;;;;;7.53;1.90;;;25.70;99.90;;;25.73;100.00;97511.81;5038063;28;20057;-73
2023/09/17 09:02:54;;;;;;;7.20;1.80;;;25.70;99.90;;;25.39;100.00;97502.94;5021443;28;20117;-73
2023/09/17 09:05:25;;;;;;;7.93;2.17;;;25.90;99.90;;;25.18;100.00;97513.97;5035875;28;20480;-73
2023/09/17 09:07:56;;;;;;;7.47;2.00;;;26.00;99.90;;;25.17;100.00;97517.56;5042644;28;20053;-74
2023/09/17 09:10:24;;;;;;;5.82;1.85;;;26.30;99.90;;;26.00;100.00;97510.75;5043588;28;20536;-73
2023/09/17 09:12:52;;;;;;;7.45;2.08;;;26.80;99.90;;;25.64;100.00;97509.16;5044647;28;20052;-73
2023/09/17 09:15:19;;;;;;;6.53;1.98;;;27.20;99.90;;;25.56;100.00;97517.09;5036876;28;20048;-74
2023/09/17 09:17:46;;;;;;;7.00;2.05;;;27.30;99.90;;;25.60;100.00;97509.66;5036949;28;20053;-72
2023/09/17 09:20:18;;;;;;;5.57;1.88;;;27.40;99.90;;;25.67;100.00;97503.50;5036666;28;20414;-74
2023/09/17 09:22:45;;;;;;;8.05;2.25;;;27.10;99.90;;;25.99;100.00;97506.44;5035610;28;20056;-74
2023/09/17 09:25:14;;;;;;;7.57;2.30;;;27.40;99.90;;;26.06;100.00;97512.75;5034899;28;20072;-74
2023/09/17 09:27:42;;;;;;;7.05;1.98;;;27.00;99.90;;;26.02;100.00;97504.28;5038929;28;20045;-75
2023/09/17 09:30:11;;;;;;;5.65;1.80;;;27.30;99.90;;;26.41;100.00;97508.94;5035632;28;20060;-76
2023/09/17 09:32:40;;;;;;;6.38;1.83;;;26.70;99.90;;;26.25;100.00;97514.25;5040634;28;20045;-74
2023/09/17 09:35:10;;;;;;;;;;;26.80;99.90;;;26.50;100.00;97509.75;5041844;28;20049;-75
2023/09/17 09:37:39;;;;;;;7.93;2.25;;;27.10;99.90;;;26.85;100.00;97515.75;5028964;28;20377;-75
2023/09/17 09:40:07;;;;;;;4.18;1.95;;;26.90;99.90;;;26.51;100.00;97514.09;5061333;28;20045;-76
2023/09/17 09:42:35;;;;;;;7.95;2.40;;;26.90;99.90;;;26.14;100.00;97517.22;5042976;28;20048;-75
2023/09/17 09:45:03;;;;;;;7.13;2.65;;;26.50;99.90;;;26.12;100.00;97505.97;5046729;28;20122;-75
2023/09/17 09:47:31;;;;;;;6.88;2.15;;;26.10;99.90;;;25.63;100.00;97517.28;5047751;28;20437;-74
2023/09/17 09:50:00;;;;;;;9.25;2.38;;;26.00;99.90;;;25.48;100.00;97527.72;5046636;28;20041;-76
2023/09/17 09:52:29;;;;;;;6.03;2.17;;;25.90;99.90;;;25.86;100.00;97512.19;5046394;28;20529;-76
2023/09/17 09:54:56;;;;;;;7.57;1.90;;;26.00;99.90;;;26.31;100.00;97508.28;5043060;28;20041;-76
2023/09/17 09:57:25;;;;;;;5.15;1.85;;;26.00;99.90;;;26.86;100.00;97507.56;5025538;28;21657;-76
2023/09/17 09:59:53;;;;;;;6.68;1.90;;;26.60;99.90;;;26.65;100.00;97505.44;5058966;28;20048;-75
2023/09/17 10:02:21;;;;;;;4.35;1.95;;;27.10;99.90;;;26.38;100.00;97505.78;5046496;28;20095;-75
2023/09/17 10:04:52;;;;;;;8.05;2.25;;;27.00;99.90;;;26.65;100.00;97507.28;5048042;28;20425;-76
2023/09/17 10:07:21;;;;;;;8.20;2.10;;;27.30;99.90;;;26.97;100.00;97505.56;5044431;28;20048;-75
2023/09/17 10:09:48;;;;;;;7.43;2.10;;;27.70;99.90;;;26.41;100.00;97500.13;5041122;28;20601;-75
2023/09/17 10:12:16;;;;;;;10.13;2.53;;;27.60;99.90;;;26.36;100.00;97494.47;5045661;28;20131;-74
2023/09/17 10:14:43;;;;;;;7.28;2.25;;;27.70;99.90;;;26.18;100.00;97491.97;5042317;28;20057;-75
2023/09/17 10:17:13;;;;;;;5.72;2.03;;;27.70;99.90;;;26.27;100.00;97496.28;5043550;28;20068;-75
2023/09/17 10:19:41;;;;;;;8.75;1.83;;;27.50;99.90;;;26.61;100.00;97489.97;5044374;28;20106;-74